KSLE/SLE METAR and TAF weather

Enter ICAO airport designator
Station Type Date Time Source
KSLE METAR 2018/12/10 08:01 UTC NOAA

KSLE 100801Z AUTO 00000KT 3/4SM R31/3000V3500FT BR OVC003 04/03 A3024 RMK AO2 T00440033


Station Type Date Time Source
KSLE Decoded METAR 2018/12/10 08:01 UTC NOAA

SALEM MCNARY FIELD, OR, United States (KSLE) 44-54N 123-00W 59M
Dec 10, 2018 - 03:01 AM EST / 2018.12.10 0801 UTC
Wind: Calm (direction variable):0
Visibility: 3/4 mile(s):0
Sky conditions: overcast
Weather: mist
Temperature: 39.9 F (4.4 C)
Dew Point: 37.9 F (3.3 C)
Relative Humidity: 92%
Pressure (altimeter): 30.24 in. Hg (1024 hPa)
ob: KSLE 100801Z AUTO 00000KT 3/4SM R31/3000V3500FT BR OVC003 04/03 A3024 RMK AO2 T00440033
cycle: 8

Station Type Date Time Source
KSLE TAF 2018/12/10 07:12 UTC NOAA

TAF
AMD KSLE 100710Z 1007/1106 VRB03KT 3SM -RA BR BKN004 OVC015
FM101400 19004KT 6SM BR SCT008 BKN018 OVC035
FM101900 17005KT P6SM SCT010 BKN035 OVC050
FM110000 18006KT P6SM BKN035 OVC070


Example: see airport list